Munich, North Dakota
Current Conditions -  °F | °C
As of 7:35 PM on Thursday 27 Nov 2014 (Local Time) from KD55 Reporting Station
Haze Haze  
Wind Chill: -10°   Ceiling: 1000
Heat Index:   Visibility: 3mi
Dew Point:   Wind: 14mph
Humidity: 79%   Direction: 170°S
Pressure: 30.08"   Gusts: NA
Location:  48.67°N, 98.83°W
Report Text: KD55 280135Z AUTO 17012KT 3SM HZ SCT001 BKN010 OVC042 M14/M17 A3008 RMK AO2
Loading
Personal Weather Stations






























Interactive Weather Map New forecast layout! Learn more

10-Day Weather Forecast

Advertisements
Track Severe Weather on mobile